createdAt,value
2022-07-26T00:00:00.395Z,83.9
2022-07-26T00:01:00.504Z,83.6
2022-07-26T00:02:00.347Z,84.3
2022-07-26T00:03:00.498Z,84.1
2022-07-26T00:04:00.439Z,84.4
2022-07-26T00:05:00.415Z,84.6
2022-07-26T00:06:00.469Z,83.6
2022-07-26T00:07:00.514Z,84.1
2022-07-26T00:08:00.458Z,84.4
2022-07-26T00:09:00.958Z,84.1
2022-07-26T00:10:00.242Z,84.6
2022-07-26T00:11:00.255Z,84.6
2022-07-26T00:12:00.218Z,84.7
2022-07-26T00:13:00.209Z,84.8
2022-07-26T00:14:00.216Z,84.9
2022-07-26T00:15:00.187Z,85
2022-07-26T00:16:00.244Z,85.2
2022-07-26T00:17:00.277Z,85.5
2022-07-26T00:18:00.226Z,84.9
2022-07-26T00:19:00.212Z,85.6
2022-07-26T00:20:00.243Z,85.5
2022-07-26T00:21:00.250Z,86.3
2022-07-26T00:22:00.206Z,86.5
2022-07-26T00:23:00.184Z,86.6
2022-07-26T00:24:03.280Z,86.9
2022-07-26T00:25:00.299Z,87.2
2022-07-26T00:26:00.184Z,87.4
2022-07-26T00:27:00.200Z,87.5
2022-07-26T00:28:00.200Z,87.9
2022-07-26T00:29:00.181Z,88.1
2022-07-26T00:30:00.212Z,88.2
2022-07-26T00:31:00.359Z,88.8
2022-07-26T00:32:00.323Z,89.1
2022-07-26T00:33:00.205Z,89.3
2022-07-26T00:34:00.209Z,89.4
2022-07-26T00:35:00.189Z,89.8
2022-07-26T00:36:00.222Z,90.4
2022-07-26T00:37:00.186Z,90.7
2022-07-26T00:38:00.202Z,90.8
2022-07-26T00:39:00.234Z,91.5
2022-07-26T00:40:00.220Z,91.4
2022-07-26T00:41:00.200Z,91.6
2022-07-26T00:42:00.212Z,92.2
2022-07-26T00:43:00.202Z,92.3
2022-07-26T00:44:00.308Z,93.1
2022-07-26T00:45:00.250Z,92.5
2022-07-26T00:46:00.336Z,92.9
2022-07-26T00:47:00.192Z,93.1
2022-07-26T00:48:00.187Z,93
2022-07-26T00:49:00.329Z,93.2
2022-07-26T00:50:00.206Z,93.6
2022-07-26T00:51:00.207Z,93.5
2022-07-26T00:52:00.242Z,93.4
2022-07-26T00:53:00.235Z,93.6
2022-07-26T00:54:00.180Z,93.6
2022-07-26T00:55:00.195Z,93.8
2022-07-26T00:56:00.196Z,94.3
2022-07-26T00:57:00.187Z,93.8
2022-07-26T00:58:00.202Z,93.6
2022-07-26T00:59:00.257Z,93.7
2022-07-26T01:00:00.237Z,94.1
2022-07-26T01:01:00.293Z,94.1
2022-07-26T01:02:00.365Z,94
2022-07-26T01:03:00.182Z,93.8
2022-07-26T01:04:00.210Z,94
2022-07-26T01:05:00.208Z,94.3
2022-07-26T01:06:00.237Z,94.5
2022-07-26T01:07:00.240Z,95
2022-07-26T01:08:00.183Z,94.7
2022-07-26T01:09:00.185Z,94.6
2022-07-26T01:10:00.230Z,94.9
2022-07-26T01:11:00.210Z,94.9
2022-07-26T01:12:00.200Z,95.1
2022-07-26T01:13:00.237Z,95.5
2022-07-26T01:14:00.241Z,95.6
2022-07-26T01:15:00.220Z,95.3
2022-07-26T01:16:00.257Z,95.6
2022-07-26T01:17:00.191Z,95.9
2022-07-26T01:18:00.207Z,96.1
2022-07-26T01:19:00.196Z,96.2
2022-07-26T01:20:00.226Z,96.9
2022-07-26T01:21:00.270Z,97
2022-07-26T01:22:00.216Z,97.4
2022-07-26T01:23:00.199Z,97.5
2022-07-26T01:24:00.308Z,97.8
2022-07-26T01:25:00.203Z,98
2022-07-26T01:26:00.377Z,98.3
2022-07-26T01:27:00.393Z,98.7
2022-07-26T01:28:00.473Z,98.8
2022-07-26T01:29:00.501Z,99.3
2022-07-26T01:30:00.634Z,99.6
2022-07-26T01:31:00.329Z,99.3
2022-07-26T01:32:00.219Z,99.2
2022-07-26T01:33:00.237Z,99.7
2022-07-26T01:34:00.258Z,99.5
2022-07-26T01:35:00.246Z,99.7
2022-07-26T01:36:00.236Z,99.9
2022-07-26T01:37:00.212Z,100
2022-07-26T01:38:00.200Z,100
2022-07-26T01:39:00.208Z,100
2022-07-26T01:40:00.214Z,100
2022-07-26T01:41:00.250Z,100
2022-07-26T01:42:00.256Z,100
2022-07-26T01:43:00.195Z,100
2022-07-26T01:44:00.206Z,100
2022-07-26T01:45:00.191Z,100
2022-07-26T01:46:00.275Z,100
2022-07-26T01:47:00.205Z,100
2022-07-26T01:48:00.210Z,100
2022-07-26T01:49:00.425Z,100
2022-07-26T01:50:00.224Z,100
2022-07-26T01:51:00.210Z,100
2022-07-26T01:52:00.216Z,100
2022-07-26T01:53:00.210Z,100
2022-07-26T01:54:00.210Z,100
2022-07-26T01:55:00.247Z,100
2022-07-26T01:56:00.245Z,100
2022-07-26T01:57:00.293Z,100
2022-07-26T01:58:00.376Z,100
2022-07-26T01:59:00.503Z,100
2022-07-26T02:00:00.467Z,100
2022-07-26T02:01:00.531Z,100
2022-07-26T02:02:00.579Z,99.8
2022-07-26T02:03:00.333Z,100
2022-07-26T02:04:00.192Z,99.4
2022-07-26T02:05:00.210Z,99.1
2022-07-26T02:06:00.210Z,99.7
2022-07-26T02:07:00.219Z,100
2022-07-26T02:08:00.215Z,100
2022-07-26T02:09:00.267Z,100
2022-07-26T02:10:00.247Z,100
2022-07-26T02:11:00.216Z,100
2022-07-26T02:12:00.205Z,100
2022-07-26T02:13:00.216Z,100
2022-07-26T02:14:00.203Z,100
2022-07-26T02:15:00.215Z,100
2022-07-26T02:16:00.336Z,100
2022-07-26T02:17:00.453Z,100
2022-07-26T02:18:00.218Z,100
2022-07-26T02:19:00.197Z,100
2022-07-26T02:20:00.209Z,100
2022-07-26T02:21:00.231Z,100
2022-07-26T02:22:00.220Z,100
2022-07-26T02:23:00.269Z,100
2022-07-26T02:24:00.245Z,100
2022-07-26T02:25:04.778Z,100
2022-07-26T02:26:00.203Z,100
2022-07-26T02:27:00.199Z,100
2022-07-26T02:28:00.205Z,100
2022-07-26T02:29:00.193Z,100
2022-07-26T02:30:00.232Z,100
2022-07-26T02:31:00.325Z,100
2022-07-26T02:32:00.222Z,100
2022-07-26T02:33:00.208Z,100
2022-07-26T02:34:00.239Z,100
2022-07-26T02:35:00.229Z,100
2022-07-26T02:36:00.237Z,100
2022-07-26T02:37:00.258Z,100
2022-07-26T02:38:00.262Z,100
2022-07-26T02:39:00.201Z,100
2022-07-26T02:40:00.208Z,100
2022-07-26T02:41:00.211Z,100
2022-07-26T02:42:00.207Z,100
2022-07-26T02:43:00.220Z,100
2022-07-26T02:44:00.261Z,100
2022-07-26T02:45:00.263Z,100
2022-07-26T02:46:03.731Z,100
2022-07-26T02:47:00.344Z,100
2022-07-26T02:48:00.201Z,100
2022-07-26T02:49:00.310Z,100
2022-07-26T02:50:00.218Z,100
2022-07-26T02:51:00.312Z,100
2022-07-26T02:52:00.267Z,100
2022-07-26T02:53:00.208Z,100
2022-07-26T02:54:00.213Z,100
2022-07-26T02:55:00.216Z,100
2022-07-26T02:56:00.235Z,100
2022-07-26T02:57:00.210Z,100
2022-07-26T02:58:00.267Z,100
2022-07-26T02:59:00.251Z,100
2022-07-26T03:00:00.235Z,100
2022-07-26T03:01:00.225Z,100
2022-07-26T03:02:00.322Z,100
2022-07-26T03:03:00.337Z,100
2022-07-26T03:04:00.205Z,100
2022-07-26T03:05:00.258Z,100
2022-07-26T03:06:00.269Z,100
2022-07-26T03:07:00.200Z,100
2022-07-26T03:08:00.215Z,100
2022-07-26T03:09:00.216Z,100
2022-07-26T03:10:00.215Z,100
2022-07-26T03:11:00.230Z,100
2022-07-26T03:12:00.347Z,100
2022-07-26T03:13:00.443Z,100
2022-07-26T03:14:00.370Z,100
2022-07-26T03:15:00.241Z,100
2022-07-26T03:16:00.341Z,100
2022-07-26T03:17:00.214Z,100
2022-07-26T03:18:00.196Z,100
2022-07-26T03:19:00.255Z,100
2022-07-26T03:20:00.292Z,100
2022-07-26T03:21:00.229Z,100
2022-07-26T03:22:00.206Z,100
2022-07-26T03:23:00.315Z,100
2022-07-26T03:24:00.239Z,100
2022-07-26T03:25:00.221Z,100
2022-07-26T03:26:00.276Z,100
2022-07-26T03:27:00.286Z,100
2022-07-26T03:28:00.213Z,100
2022-07-26T03:29:00.215Z,100
2022-07-26T03:30:00.271Z,100
2022-07-26T03:31:00.313Z,100
2022-07-26T03:32:00.239Z,100
2022-07-26T03:33:00.271Z,100
2022-07-26T03:34:03.255Z,100
2022-07-26T03:35:00.257Z,100
2022-07-26T03:36:00.226Z,100
2022-07-26T03:37:00.231Z,100
2022-07-26T03:38:00.311Z,100
2022-07-26T03:39:00.233Z,100
2022-07-26T03:40:00.295Z,100
2022-07-26T03:41:00.251Z,100
2022-07-26T03:42:00.219Z,100
2022-07-26T03:43:00.337Z,100
2022-07-26T03:44:00.326Z,100
2022-07-26T03:45:00.302Z,100
2022-07-26T03:46:00.369Z,100
2022-07-26T03:47:00.431Z,100
2022-07-26T03:48:00.248Z,100
2022-07-26T03:49:00.312Z,100
2022-07-26T03:50:00.221Z,100
2022-07-26T03:51:00.294Z,100
2022-07-26T03:52:00.226Z,100
2022-07-26T03:53:00.215Z,100
2022-07-26T03:54:00.290Z,100
2022-07-26T03:55:00.278Z,100
2022-07-26T03:56:00.313Z,100
2022-07-26T03:57:00.323Z,100
2022-07-26T03:58:00.330Z,100
2022-07-26T03:59:00.317Z,100
2022-07-26T04:00:00.225Z,100
2022-07-26T04:01:00.420Z,100
2022-07-26T04:02:00.516Z,100
2022-07-26T04:03:00.320Z,100
2022-07-26T04:04:00.215Z,100
2022-07-26T04:05:00.294Z,100
2022-07-26T04:06:00.248Z,100
2022-07-26T04:07:03.265Z,100
2022-07-26T04:08:00.417Z,100
2022-07-26T04:09:00.287Z,100
2022-07-26T04:10:00.277Z,100
2022-07-26T04:11:00.307Z,100
2022-07-26T04:12:00.299Z,100
2022-07-26T04:13:00.296Z,100
2022-07-26T04:14:00.213Z,100
2022-07-26T04:15:00.265Z,100
2022-07-26T04:16:00.250Z,100
2022-07-26T04:17:00.273Z,100
2022-07-26T04:18:00.221Z,100
2022-07-26T04:19:00.232Z,100
2022-07-26T04:20:00.236Z,100
2022-07-26T04:21:00.291Z,100
2022-07-26T04:22:00.301Z,100
2022-07-26T04:23:00.269Z,100
2022-07-26T04:24:00.231Z,100
2022-07-26T04:25:00.311Z,100
2022-07-26T04:26:00.294Z,100
2022-07-26T04:27:00.299Z,100
2022-07-26T04:28:00.303Z,100
2022-07-26T04:29:00.309Z,100
2022-07-26T04:30:00.268Z,100
2022-07-26T04:31:00.334Z,100
2022-07-26T04:32:00.223Z,100
2022-07-26T04:33:00.330Z,100
2022-07-26T04:34:00.239Z,100
2022-07-26T04:35:00.243Z,100
2022-07-26T04:36:00.345Z,100
2022-07-26T04:37:00.267Z,100
2022-07-26T04:38:00.269Z,100
2022-07-26T04:39:00.268Z,100
2022-07-26T04:40:00.238Z,100
2022-07-26T04:41:00.271Z,100
2022-07-26T04:42:00.218Z,100
2022-07-26T04:43:00.283Z,100
2022-07-26T04:44:00.261Z,100
2022-07-26T04:45:04.376Z,100
2022-07-26T04:46:00.372Z,100
2022-07-26T04:47:00.316Z,100
2022-07-26T04:48:00.220Z,100
2022-07-26T04:49:00.412Z,100
2022-07-26T04:50:00.271Z,100
2022-07-26T04:51:00.259Z,100
2022-07-26T04:52:00.248Z,100
2022-07-26T04:53:00.262Z,100
2022-07-26T04:54:00.225Z,100
2022-07-26T04:55:00.247Z,100
2022-07-26T04:56:00.214Z,100
2022-07-26T04:57:00.273Z,100
2022-07-26T04:58:00.296Z,100
2022-07-26T04:59:00.305Z,100
2022-07-26T05:00:20.254Z,100
2022-07-26T05:01:10.023Z,100
2022-07-26T05:02:00.431Z,100
2022-07-26T05:03:00.323Z,100
2022-07-26T05:04:00.259Z,100
2022-07-26T05:05:00.283Z,100
2022-07-26T05:06:00.439Z,100
2022-07-26T05:07:00.502Z,100
2022-07-26T05:08:00.627Z,100
2022-07-26T05:09:00.620Z,100
2022-07-26T05:10:00.249Z,100
2022-07-26T05:11:00.602Z,100
2022-07-26T05:12:00.722Z,100
2022-07-26T05:13:00.220Z,100
2022-07-26T05:14:00.235Z,100
2022-07-26T05:15:00.307Z,100
2022-07-26T05:16:00.409Z,100
2022-07-26T05:17:00.358Z,100
2022-07-26T05:18:00.271Z,100
2022-07-26T05:19:00.265Z,100
2022-07-26T05:20:03.290Z,100
2022-07-26T05:21:00.241Z,100
2022-07-26T05:22:00.330Z,100
2022-07-26T05:23:00.226Z,100
2022-07-26T05:24:00.229Z,100
2022-07-26T05:25:00.290Z,100
2022-07-26T05:26:00.282Z,100
2022-07-26T05:27:00.284Z,100
2022-07-26T05:28:00.217Z,100
2022-07-26T05:29:00.384Z,100
2022-07-26T05:30:00.287Z,100
2022-07-26T05:31:00.386Z,100
2022-07-26T05:32:00.278Z,100
2022-07-26T05:33:00.255Z,100
2022-07-26T05:34:00.322Z,100
2022-07-26T05:35:00.325Z,100
2022-07-26T05:36:00.343Z,100
2022-07-26T05:37:00.244Z,100
2022-07-26T05:38:00.221Z,100
2022-07-26T05:39:00.287Z,100
2022-07-26T05:40:00.454Z,100
2022-07-26T05:41:00.258Z,100
2022-07-26T05:42:00.257Z,100
2022-07-26T05:43:00.233Z,100
2022-07-26T05:44:00.229Z,100
2022-07-26T05:45:00.251Z,100
2022-07-26T05:46:00.959Z,100
2022-07-26T05:47:00.302Z,100
2022-07-26T05:48:00.262Z,100
2022-07-26T05:49:00.381Z,100
2022-07-26T05:50:00.415Z,100
2022-07-26T05:51:00.231Z,100
2022-07-26T05:52:01.466Z,100
2022-07-26T05:53:00.229Z,100
2022-07-26T05:54:00.284Z,100
2022-07-26T05:55:00.247Z,100
2022-07-26T05:56:00.251Z,100
2022-07-26T05:57:00.271Z,100
2022-07-26T05:58:00.235Z,100
2022-07-26T05:59:00.266Z,100
2022-07-26T06:00:00.520Z,100
2022-07-26T06:01:00.391Z,100
2022-07-26T06:02:00.342Z,100
2022-07-26T06:03:00.343Z,100
2022-07-26T06:04:00.294Z,100
2022-07-26T06:05:00.233Z,100
2022-07-26T06:06:00.312Z,100
2022-07-26T06:07:00.327Z,100
2022-07-26T06:08:00.268Z,100
2022-07-26T06:09:00.238Z,100
2022-07-26T06:10:00.231Z,100
2022-07-26T06:11:00.385Z,100
2022-07-26T06:12:00.259Z,100
2022-07-26T06:13:00.234Z,100
2022-07-26T06:14:00.468Z,100
2022-07-26T06:15:00.271Z,100
2022-07-26T06:16:00.227Z,100
2022-07-26T06:17:00.351Z,100
2022-07-26T06:18:00.256Z,100
2022-07-26T06:19:00.223Z,100
2022-07-26T06:20:00.226Z,100
2022-07-26T06:21:02.227Z,100
2022-07-26T06:22:00.340Z,100
2022-07-26T06:23:00.312Z,100
2022-07-26T06:24:00.221Z,100
2022-07-26T06:25:00.340Z,100
2022-07-26T06:26:00.251Z,100
2022-07-26T06:27:04.667Z,100
2022-07-26T06:28:00.269Z,100
2022-07-26T06:29:00.275Z,100
2022-07-26T06:30:00.258Z,100
2022-07-26T06:31:00.388Z,100
2022-07-26T06:32:00.485Z,100
2022-07-26T06:33:00.255Z,100
2022-07-26T06:34:00.285Z,100
2022-07-26T06:35:00.399Z,100
2022-07-26T06:36:00.358Z,100
2022-07-26T06:37:00.330Z,100
2022-07-26T06:38:00.233Z,100
2022-07-26T06:39:00.320Z,100
2022-07-26T06:40:00.328Z,100
2022-07-26T06:41:00.267Z,100
2022-07-26T06:42:00.297Z,100
2022-07-26T06:43:04.330Z,100
2022-07-26T06:44:00.251Z,100
2022-07-26T06:45:00.272Z,100
2022-07-26T06:46:00.351Z,100
2022-07-26T06:47:00.292Z,100
2022-07-26T06:48:00.306Z,100
2022-07-26T06:49:00.440Z,100
2022-07-26T06:50:00.551Z,100
2022-07-26T06:51:00.323Z,100
2022-07-26T06:52:00.306Z,100
2022-07-26T06:53:00.227Z,100
2022-07-26T06:54:00.994Z,100
2022-07-26T06:55:00.231Z,100
2022-07-26T06:56:00.456Z,100
2022-07-26T06:57:00.278Z,100
2022-07-26T06:58:00.234Z,100
2022-07-26T06:59:00.341Z,100
2022-07-26T07:00:00.368Z,100
2022-07-26T07:01:00.369Z,100
2022-07-26T07:02:00.756Z,100
2022-07-26T07:03:00.372Z,100
2022-07-26T07:04:00.373Z,100
2022-07-26T07:05:00.436Z,100
2022-07-26T07:06:00.246Z,100
2022-07-26T07:07:00.223Z,100
2022-07-26T07:08:00.354Z,100
2022-07-26T07:09:00.235Z,100
2022-07-26T07:10:00.282Z,100
2022-07-26T07:11:00.351Z,100
2022-07-26T07:12:05.441Z,100
2022-07-26T07:13:00.237Z,100
2022-07-26T07:14:00.261Z,100
2022-07-26T07:15:00.239Z,100
2022-07-26T07:16:00.425Z,100
2022-07-26T07:17:00.379Z,100
2022-07-26T07:18:00.393Z,100
2022-07-26T07:19:00.268Z,100
2022-07-26T07:20:00.277Z,100
2022-07-26T07:21:00.267Z,100
2022-07-26T07:22:00.230Z,100
2022-07-26T07:23:00.232Z,100
2022-07-26T07:24:00.263Z,100
2022-07-26T07:25:00.297Z,100
2022-07-26T07:26:00.248Z,100
2022-07-26T07:27:00.321Z,100
2022-07-26T07:28:00.561Z,100
2022-07-26T07:29:00.245Z,100
2022-07-26T07:30:00.333Z,100
2022-07-26T07:31:00.655Z,100
2022-07-26T07:32:00.702Z,100
2022-07-26T07:33:00.249Z,100
2022-07-26T07:34:00.237Z,100
2022-07-26T07:35:00.247Z,100
2022-07-26T07:36:00.241Z,100
2022-07-26T07:37:00.251Z,100
2022-07-26T07:38:00.399Z,100
2022-07-26T07:39:05.973Z,100
2022-07-26T07:40:00.304Z,100
2022-07-26T07:41:00.277Z,100
2022-07-26T07:42:00.253Z,100
2022-07-26T07:43:00.243Z,100
2022-07-26T07:44:00.235Z,100
2022-07-26T07:45:00.349Z,100
2022-07-26T07:46:00.283Z,100
2022-07-26T07:47:00.339Z,100
2022-07-26T07:48:00.238Z,100
2022-07-26T07:49:00.355Z,100
2022-07-26T07:50:00.269Z,100
2022-07-26T07:51:00.258Z,100
2022-07-26T07:52:00.381Z,100
2022-07-26T07:53:00.385Z,100
2022-07-26T07:54:05.181Z,100
2022-07-26T07:55:21.833Z,100
2022-07-26T07:56:00.295Z,100
2022-07-26T07:57:00.309Z,100
2022-07-26T07:58:00.323Z,100
2022-07-26T07:59:00.299Z,100
2022-07-26T08:00:00.289Z,100
2022-07-26T08:01:00.272Z,100
2022-07-26T08:02:00.347Z,100
2022-07-26T08:03:00.454Z,100
2022-07-26T08:04:00.465Z,100
2022-07-26T08:05:14.220Z,100
2022-07-26T08:06:00.409Z,100
2022-07-26T08:07:00.330Z,100
2022-07-26T08:08:00.253Z,100
2022-07-26T08:09:00.313Z,100
2022-07-26T08:10:00.345Z,100
2022-07-26T08:11:00.332Z,100
2022-07-26T08:12:00.257Z,100
2022-07-26T08:13:00.304Z,100
2022-07-26T08:14:00.348Z,100
2022-07-26T08:15:00.360Z,100
2022-07-26T08:16:00.869Z,100
2022-07-26T08:17:00.404Z,100
2022-07-26T08:18:00.269Z,100
2022-07-26T08:19:00.333Z,100
2022-07-26T08:20:00.836Z,100
2022-07-26T08:21:00.287Z,100
2022-07-26T08:22:00.304Z,100
2022-07-26T08:23:00.312Z,100
2022-07-26T08:24:00.233Z,100
2022-07-26T08:25:00.250Z,100
2022-07-26T08:26:04.741Z,100
2022-07-26T08:27:00.351Z,100
2022-07-26T08:28:03.462Z,100
2022-07-26T08:29:00.625Z,100
2022-07-26T08:30:00.257Z,100
2022-07-26T08:31:00.486Z,100
2022-07-26T08:32:00.337Z,100
2022-07-26T08:33:00.274Z,100
2022-07-26T08:34:00.381Z,100
2022-07-26T08:35:17.243Z,100
2022-07-26T08:36:00.261Z,100
2022-07-26T08:37:16.382Z,100
2022-07-26T08:38:00.238Z,100
2022-07-26T08:39:00.239Z,100
2022-07-26T08:40:00.382Z,100
2022-07-26T08:41:00.323Z,100
2022-07-26T08:42:00.398Z,100
2022-07-26T08:43:00.439Z,100
2022-07-26T08:44:00.461Z,100
2022-07-26T08:45:00.591Z,100
2022-07-26T08:46:00.246Z,100
2022-07-26T08:47:00.381Z,100
2022-07-26T08:48:17.211Z,100
2022-07-26T08:49:00.454Z,100
2022-07-26T08:50:00.277Z,100
2022-07-26T08:51:00.708Z,100
2022-07-26T08:52:00.271Z,100
2022-07-26T08:53:00.250Z,100
2022-07-26T08:54:05.305Z,99
2022-07-26T08:55:00.299Z,95.9
2022-07-26T08:56:07.868Z,99.4
2022-07-26T08:57:00.300Z,98.9
2022-07-26T08:58:00.256Z,100
2022-07-26T08:59:00.275Z,99.8
2022-07-26T09:00:00.298Z,99
2022-07-26T09:01:00.341Z,98.1
2022-07-26T09:02:00.336Z,97.5
2022-07-26T09:03:00.320Z,98.1
2022-07-26T09:04:00.369Z,98
2022-07-26T09:05:00.254Z,98
2022-07-26T09:06:00.280Z,99.1
2022-07-26T09:07:00.249Z,99.1
2022-07-26T09:08:00.349Z,95.8
2022-07-26T09:09:00.357Z,94.1
2022-07-26T09:10:00.400Z,93.4
2022-07-26T09:11:00.544Z,93.5
2022-07-26T09:12:00.396Z,92.1
2022-07-26T09:13:00.271Z,92.2
2022-07-26T09:14:00.290Z,93.1
2022-07-26T09:15:00.299Z,95.2
2022-07-26T09:16:00.330Z,94.9
2022-07-26T09:17:00.448Z,93.7
2022-07-26T09:18:00.252Z,92.3
2022-07-26T09:19:00.279Z,91.4
2022-07-26T09:20:00.307Z,92
2022-07-26T09:21:00.466Z,88.7
2022-07-26T09:22:00.341Z,88.2
2022-07-26T09:23:00.323Z,89.6
2022-07-26T09:24:00.301Z,92.6
2022-07-26T09:25:00.263Z,96
2022-07-26T09:26:00.259Z,100
2022-07-26T09:27:00.269Z,100
2022-07-26T09:28:00.245Z,100
2022-07-26T09:29:00.283Z,100
2022-07-26T09:30:00.326Z,100
2022-07-26T09:31:00.370Z,100
2022-07-26T09:32:00.287Z,100
2022-07-26T09:33:00.316Z,100
2022-07-26T09:34:00.254Z,100
2022-07-26T09:35:00.466Z,100
2022-07-26T09:36:00.267Z,100
2022-07-26T09:37:00.338Z,100
2022-07-26T09:38:00.296Z,100
2022-07-26T09:39:00.341Z,100
2022-07-26T09:40:00.368Z,99.2
2022-07-26T09:41:00.365Z,98.5
2022-07-26T09:42:26.318Z,97.6
2022-07-26T09:43:00.252Z,97.3
2022-07-26T09:44:00.306Z,95.3
2022-07-26T09:45:00.300Z,95.2
2022-07-26T09:46:00.249Z,95.7
2022-07-26T09:47:00.401Z,98.8
2022-07-26T09:48:00.303Z,100
2022-07-26T09:49:10.378Z,100
2022-07-26T09:50:00.346Z,100
2022-07-26T09:51:00.426Z,100
2022-07-26T09:52:00.331Z,100
2022-07-26T09:53:00.341Z,100
2022-07-26T09:54:00.258Z,99.2
2022-07-26T09:55:00.262Z,99.5
2022-07-26T09:56:00.254Z,99.3
2022-07-26T09:57:00.261Z,99.1
2022-07-26T09:58:00.320Z,96.9
2022-07-26T09:59:00.314Z,94.5
2022-07-26T10:00:00.283Z,90.4
2022-07-26T10:01:02.525Z,86.2
2022-07-26T10:02:00.403Z,87.3
2022-07-26T10:03:00.354Z,86.1
2022-07-26T10:04:00.310Z,85.2
2022-07-26T10:05:00.404Z,85.2
2022-07-26T10:06:00.299Z,87.4
2022-07-26T10:07:00.321Z,88.5
2022-07-26T10:08:00.260Z,85.3
2022-07-26T10:09:00.371Z,85.9
2022-07-26T10:10:00.309Z,82.5
2022-07-26T10:11:00.265Z,83.2
2022-07-26T10:12:00.365Z,84
2022-07-26T10:13:00.324Z,83.6
2022-07-26T10:14:00.313Z,83.7
2022-07-26T10:15:00.260Z,82.6
2022-07-26T10:16:00.364Z,83.5
2022-07-26T10:17:00.283Z,83.1
2022-07-26T10:18:00.300Z,85.7
2022-07-26T10:19:00.922Z,85.8
2022-07-26T10:20:00.505Z,85.8
2022-07-26T10:21:00.312Z,86.1
2022-07-26T10:22:00.255Z,86.3
2022-07-26T10:23:00.302Z,86.9
2022-07-26T10:24:00.260Z,87.8
2022-07-26T10:25:00.281Z,85.9
2022-07-26T10:26:00.539Z,85.7
2022-07-26T10:27:00.445Z,85.9
2022-07-26T10:28:00.270Z,83.2
2022-07-26T10:29:00.263Z,81.2
2022-07-26T10:30:00.388Z,81.6
2022-07-26T10:31:00.350Z,82
2022-07-26T10:32:00.391Z,82.1
2022-07-26T10:33:00.312Z,83.8
2022-07-26T10:34:00.330Z,82.6
2022-07-26T10:35:00.289Z,79.7
2022-07-26T10:36:00.267Z,82.4
2022-07-26T10:37:00.684Z,80.4
2022-07-26T10:38:00.319Z,80.4
2022-07-26T10:39:00.265Z,79.5
2022-07-26T10:40:00.325Z,79.1
2022-07-26T10:41:00.314Z,79.4
2022-07-26T10:42:00.358Z,77.8
2022-07-26T10:43:17.122Z,79.9
2022-07-26T10:44:00.363Z,77.2
2022-07-26T10:45:00.278Z,78.5
2022-07-26T10:46:00.348Z,79.9
2022-07-26T10:47:00.559Z,80
2022-07-26T10:48:00.306Z,79.9
2022-07-26T10:49:00.375Z,80
2022-07-26T10:50:01.535Z,78.7
2022-07-26T10:51:04.494Z,77.8
2022-07-26T10:52:00.280Z,77.7
2022-07-26T10:53:00.326Z,77.4
2022-07-26T10:54:00.317Z,77
2022-07-26T10:55:00.426Z,76
2022-07-26T10:56:00.262Z,76.2
2022-07-26T10:57:00.325Z,73.9
2022-07-26T10:58:00.344Z,75.6
2022-07-26T10:59:00.269Z,76.3
2022-07-26T11:00:00.289Z,77
2022-07-26T11:01:00.383Z,75.5
2022-07-26T11:02:00.399Z,75.2
2022-07-26T11:03:00.354Z,75.3
2022-07-26T11:04:00.265Z,75.5
2022-07-26T11:05:00.271Z,75.2
2022-07-26T11:06:00.259Z,76.7
2022-07-26T11:07:00.365Z,76.3
2022-07-26T11:08:00.339Z,78.4
2022-07-26T11:09:00.313Z,78.5
2022-07-26T11:10:00.308Z,79
2022-07-26T11:11:00.374Z,77.7
2022-07-26T11:12:00.425Z,77.5
2022-07-26T11:13:00.461Z,77
2022-07-26T11:14:00.371Z,76.7
2022-07-26T11:15:00.440Z,74.5
2022-07-26T11:16:00.418Z,71.8
2022-07-26T11:17:00.281Z,73.4
2022-07-26T11:18:00.358Z,71.1
2022-07-26T11:19:00.286Z,67.9
2022-07-26T11:20:00.281Z,67
2022-07-26T11:21:00.273Z,67.5
2022-07-26T11:22:00.450Z,67.7
2022-07-26T11:23:00.311Z,69.2
2022-07-26T11:24:00.271Z,70.2
2022-07-26T11:25:00.292Z,69.4
2022-07-26T11:26:02.335Z,69.1
2022-07-26T11:27:00.288Z,67.6
2022-07-26T11:28:00.292Z,67.6
2022-07-26T11:29:00.326Z,67.8
2022-07-26T11:30:00.393Z,69
2022-07-26T11:31:00.348Z,68.4
2022-07-26T11:32:14.398Z,69
2022-07-26T11:33:00.283Z,69.3
2022-07-26T11:34:00.271Z,68.6
2022-07-26T11:35:00.337Z,68
2022-07-26T11:36:00.321Z,67.4
2022-07-26T11:37:00.337Z,66.6
2022-07-26T11:38:09.536Z,67.2
2022-07-26T11:39:01.116Z,65.4
2022-07-26T11:40:00.327Z,67.6
2022-07-26T11:41:00.270Z,67.4
2022-07-26T11:42:00.285Z,66.7
2022-07-26T11:43:00.335Z,66.5
2022-07-26T11:44:02.383Z,65
2022-07-26T11:45:00.286Z,65.7
2022-07-26T11:46:00.359Z,65
2022-07-26T11:47:00.312Z,65.5
2022-07-26T11:48:00.286Z,64
2022-07-26T11:49:00.398Z,64.2
2022-07-26T11:50:13.968Z,64.9
2022-07-26T11:51:00.319Z,64.9
2022-07-26T11:52:00.289Z,63.9
2022-07-26T11:53:00.283Z,63.6
2022-07-26T11:54:00.294Z,63.7
2022-07-26T11:55:00.282Z,62.6
2022-07-26T11:56:00.275Z,64.2
2022-07-26T11:57:00.347Z,64.1
2022-07-26T11:58:00.329Z,63.6
2022-07-26T11:59:00.265Z,64.5
2022-07-26T12:00:00.809Z,64.8
2022-07-26T12:01:00.272Z,65.7
2022-07-26T12:02:00.278Z,64.9
2022-07-26T12:03:00.284Z,65.5
2022-07-26T12:04:00.521Z,62.5
2022-07-26T12:05:00.497Z,62.7
2022-07-26T12:06:00.277Z,62.6
2022-07-26T12:07:00.339Z,60
2022-07-26T12:08:00.312Z,59
2022-07-26T12:09:00.267Z,59.4
2022-07-26T12:10:00.265Z,58.8
2022-07-26T12:11:00.386Z,57.4
2022-07-26T12:12:00.339Z,55.6
2022-07-26T12:13:00.283Z,55.8
2022-07-26T12:14:00.289Z,56.4
2022-07-26T12:15:00.283Z,53.3
2022-07-26T12:16:00.351Z,54.2
2022-07-26T12:17:00.324Z,52.7
2022-07-26T12:18:00.334Z,53.5
2022-07-26T12:19:00.329Z,51.8
2022-07-26T12:20:00.274Z,52.1
2022-07-26T12:21:04.542Z,54.5
2022-07-26T12:22:00.270Z,55.2
2022-07-26T12:23:00.283Z,55.6
2022-07-26T12:24:00.293Z,56.9
2022-07-26T12:25:00.359Z,57.8
2022-07-26T12:26:00.368Z,57.7
2022-07-26T12:27:00.286Z,58.8
2022-07-26T12:28:00.468Z,59.9
2022-07-26T12:29:00.535Z,60.9
2022-07-26T12:30:00.618Z,62.4
2022-07-26T12:31:00.793Z,63.8
2022-07-26T12:32:00.657Z,62.8
2022-07-26T12:33:00.586Z,63.2
2022-07-26T12:34:00.300Z,65.1
2022-07-26T12:35:00.296Z,66.8
2022-07-26T12:36:00.311Z,67.7
2022-07-26T12:37:00.288Z,68.8
2022-07-26T12:38:00.274Z,69.2
2022-07-26T12:39:00.948Z,70.7
2022-07-26T12:40:00.331Z,73.9
2022-07-26T12:41:00.278Z,78.5
2022-07-26T12:42:00.299Z,90.6
2022-07-26T12:43:02.173Z,99.5
2022-07-26T12:44:00.281Z,100
2022-07-26T12:45:00.295Z,100
2022-07-26T12:46:00.409Z,100
2022-07-26T12:47:00.337Z,100
2022-07-26T12:48:00.293Z,100
2022-07-26T12:49:00.977Z,100
2022-07-26T12:50:00.288Z,100
2022-07-26T12:51:00.296Z,100
2022-07-26T12:52:00.284Z,100
2022-07-26T12:53:00.353Z,100
2022-07-26T12:54:00.366Z,100
2022-07-26T12:55:00.282Z,100
2022-07-26T12:56:00.291Z,100
2022-07-26T12:57:00.310Z,100
2022-07-26T12:58:00.313Z,100
2022-07-26T12:59:00.286Z,100
2022-07-26T13:00:00.328Z,100
2022-07-26T13:01:00.390Z,100
2022-07-26T13:02:00.413Z,100
2022-07-26T13:03:00.317Z,100
2022-07-26T13:04:00.495Z,100
2022-07-26T13:05:00.768Z,100
2022-07-26T13:06:00.449Z,100
2022-07-26T13:07:00.494Z,100
2022-07-26T13:08:00.358Z,100
2022-07-26T13:09:00.656Z,100
2022-07-26T13:10:31.271Z,100
2022-07-26T13:11:00.411Z,100
2022-07-26T13:12:00.287Z,100
2022-07-26T13:13:00.354Z,100
2022-07-26T13:14:00.398Z,100
2022-07-26T13:15:00.371Z,100
2022-07-26T13:16:00.307Z,100
2022-07-26T13:17:01.084Z,100
2022-07-26T13:18:00.361Z,100
2022-07-26T13:19:00.297Z,100
2022-07-26T13:20:00.337Z,100
2022-07-26T13:21:00.341Z,100
2022-07-26T13:22:00.346Z,100
2022-07-26T13:23:00.295Z,100
2022-07-26T13:24:00.285Z,100
2022-07-26T13:25:08.376Z,100
2022-07-26T13:26:00.282Z,100
2022-07-26T13:27:00.335Z,99.7
2022-07-26T13:28:00.418Z,100
2022-07-26T13:29:00.340Z,100
2022-07-26T13:30:00.293Z,91.5
2022-07-26T13:31:00.366Z,87.7
2022-07-26T13:32:00.320Z,82.4
2022-07-26T13:33:00.327Z,78.9
2022-07-26T13:34:00.328Z,76.6
2022-07-26T13:35:00.343Z,74.1
2022-07-26T13:36:00.444Z,74.1
2022-07-26T13:37:00.339Z,72.8